sensor_id;sensor_type;location;lat;lon;timestamp;P1;durP1;ratioP1;P2;durP2;ratioP2
6033;SDS011;3045;43.226;27.858;2022-12-13T00:01:36;1.80;;;1.70;;
6033;SDS011;3045;43.226;27.858;2022-12-13T00:04:03;1.20;;;1.20;;
6033;SDS011;3045;43.226;27.858;2022-12-13T00:06:32;1.37;;;1.37;;
6033;SDS011;3045;43.226;27.858;2022-12-13T00:09:01;1.13;;;1.13;;
6033;SDS011;3045;43.226;27.858;2022-12-13T00:11:28;1.07;;;1.07;;
6033;SDS011;3045;43.226;27.858;2022-12-13T00:13:57;1.03;;;1.03;;
6033;SDS011;3045;43.226;27.858;2022-12-13T00:16:24;1.20;;;1.20;;
6033;SDS011;3045;43.226;27.858;2022-12-13T00:18:52;1.30;;;1.30;;
6033;SDS011;3045;43.226;27.858;2022-12-13T00:21:21;0.90;;;0.90;;
6033;SDS011;3045;43.226;27.858;2022-12-13T00:23:49;1.03;;;1.03;;
6033;SDS011;3045;43.226;27.858;2022-12-13T00:26:17;0.80;;;0.80;;
6033;SDS011;3045;43.226;27.858;2022-12-13T00:28:47;0.90;;;0.90;;
6033;SDS011;3045;43.226;27.858;2022-12-13T00:31:17;0.83;;;0.83;;
6033;SDS011;3045;43.226;27.858;2022-12-13T00:33:44;1.07;;;1.07;;
6033;SDS011;3045;43.226;27.858;2022-12-13T00:36:13;0.93;;;0.93;;
6033;SDS011;3045;43.226;27.858;2022-12-13T00:38:40;1.10;;;1.10;;
6033;SDS011;3045;43.226;27.858;2022-12-13T00:41:11;1.10;;;1.10;;
6033;SDS011;3045;43.226;27.858;2022-12-13T00:43:39;1.17;;;1.17;;
6033;SDS011;3045;43.226;27.858;2022-12-13T00:46:06;1.37;;;1.37;;
6033;SDS011;3045;43.226;27.858;2022-12-13T00:48:40;1.47;;;1.43;;
6033;SDS011;3045;43.226;27.858;2022-12-13T00:51:08;0.90;;;0.90;;
6033;SDS011;3045;43.226;27.858;2022-12-13T00:53:36;2.10;;;1.20;;
6033;SDS011;3045;43.226;27.858;2022-12-13T00:56:03;1.13;;;1.13;;
6033;SDS011;3045;43.226;27.858;2022-12-13T00:58:35;1.00;;;1.00;;
6033;SDS011;3045;43.226;27.858;2022-12-13T01:01:02;1.20;;;1.20;;
6033;SDS011;3045;43.226;27.858;2022-12-13T01:03:30;0.93;;;0.93;;
6033;SDS011;3045;43.226;27.858;2022-12-13T01:05:58;1.13;;;1.13;;
6033;SDS011;3045;43.226;27.858;2022-12-13T01:08:26;1.20;;;1.20;;
6033;SDS011;3045;43.226;27.858;2022-12-13T01:10:54;1.20;;;1.20;;
6033;SDS011;3045;43.226;27.858;2022-12-13T01:13:20;1.40;;;1.40;;
6033;SDS011;3045;43.226;27.858;2022-12-13T01:15:47;1.33;;;1.30;;
6033;SDS011;3045;43.226;27.858;2022-12-13T01:18:14;1.03;;;1.03;;
6033;SDS011;3045;43.226;27.858;2022-12-13T01:20:43;1.30;;;1.30;;
6033;SDS011;3045;43.226;27.858;2022-12-13T01:23:23;1.23;;;1.23;;
6033;SDS011;3045;43.226;27.858;2022-12-13T01:25:50;1.20;;;1.20;;
6033;SDS011;3045;43.226;27.858;2022-12-13T01:28:16;1.30;;;1.20;;
6033;SDS011;3045;43.226;27.858;2022-12-13T01:30:43;1.00;;;1.00;;
6033;SDS011;3045;43.226;27.858;2022-12-13T01:33:10;1.20;;;1.20;;
6033;SDS011;3045;43.226;27.858;2022-12-13T01:35:37;1.00;;;1.00;;
6033;SDS011;3045;43.226;27.858;2022-12-13T01:38:04;1.00;;;1.00;;
6033;SDS011;3045;43.226;27.858;2022-12-13T01:40:32;1.30;;;1.30;;
6033;SDS011;3045;43.226;27.858;2022-12-13T01:42:59;1.20;;;1.20;;
6033;SDS011;3045;43.226;27.858;2022-12-13T01:45:26;1.30;;;1.30;;
6033;SDS011;3045;43.226;27.858;2022-12-13T01:47:54;1.27;;;1.27;;
6033;SDS011;3045;43.226;27.858;2022-12-13T01:50:26;1.20;;;1.20;;
6033;SDS011;3045;43.226;27.858;2022-12-13T01:52:56;1.30;;;1.30;;
6033;SDS011;3045;43.226;27.858;2022-12-13T01:55:26;1.83;;;1.73;;
6033;SDS011;3045;43.226;27.858;2022-12-13T01:57:57;1.40;;;1.40;;
6033;SDS011;3045;43.226;27.858;2022-12-13T02:00:26;1.70;;;1.60;;
6033;SDS011;3045;43.226;27.858;2022-12-13T02:02:54;1.40;;;1.40;;
6033;SDS011;3045;43.226;27.858;2022-12-13T02:05:24;1.70;;;1.60;;
6033;SDS011;3045;43.226;27.858;2022-12-13T02:07:54;2.77;;;2.57;;
6033;SDS011;3045;43.226;27.858;2022-12-13T02:10:22;1.40;;;1.40;;
6033;SDS011;3045;43.226;27.858;2022-12-13T02:12:50;2.23;;;1.90;;
6033;SDS011;3045;43.226;27.858;2022-12-13T02:15:19;1.87;;;1.80;;
6033;SDS011;3045;43.226;27.858;2022-12-13T02:17:51;1.87;;;1.87;;
6033;SDS011;3045;43.226;27.858;2022-12-13T02:23:36;1.73;;;1.73;;
6033;SDS011;3045;43.226;27.858;2022-12-13T02:29:31;1.80;;;1.80;;
6033;SDS011;3045;43.226;27.858;2022-12-13T02:32:15;1.60;;;1.60;;
6033;SDS011;3045;43.226;27.858;2022-12-13T02:34:52;2.07;;;1.93;;
6033;SDS011;3045;43.226;27.858;2022-12-13T02:37:24;1.93;;;1.90;;
6033;SDS011;3045;43.226;27.858;2022-12-13T02:39:59;1.77;;;1.77;;
6033;SDS011;3045;43.226;27.858;2022-12-13T02:42:33;1.70;;;1.70;;
6033;SDS011;3045;43.226;27.858;2022-12-13T02:45:06;1.83;;;1.83;;
6033;SDS011;3045;43.226;27.858;2022-12-13T02:47:38;2.10;;;2.00;;
6033;SDS011;3045;43.226;27.858;2022-12-13T02:50:08;2.40;;;2.20;;
6033;SDS011;3045;43.226;27.858;2022-12-13T02:52:38;2.03;;;2.03;;
6033;SDS011;3045;43.226;27.858;2022-12-13T02:55:10;2.03;;;2.03;;
6033;SDS011;3045;43.226;27.858;2022-12-13T02:57:39;1.90;;;1.90;;
6033;SDS011;3045;43.226;27.858;2022-12-13T03:00:09;2.03;;;1.93;;
6033;SDS011;3045;43.226;27.858;2022-12-13T03:02:43;2.10;;;2.00;;
6033;SDS011;3045;43.226;27.858;2022-12-13T03:05:22;1.77;;;1.77;;
6033;SDS011;3045;43.226;27.858;2022-12-13T03:08:17;1.40;;;1.40;;
6033;SDS011;3045;43.226;27.858;2022-12-13T03:10:50;1.73;;;1.73;;
6033;SDS011;3045;43.226;27.858;2022-12-13T03:13:24;1.93;;;1.57;;
6033;SDS011;3045;43.226;27.858;2022-12-13T03:16:04;2.00;;;1.97;;
6033;SDS011;3045;43.226;27.858;2022-12-13T03:18:41;2.00;;;1.90;;
6033;SDS011;3045;43.226;27.858;2022-12-13T03:21:09;1.47;;;1.47;;
6033;SDS011;3045;43.226;27.858;2022-12-13T03:23:37;1.50;;;1.50;;
6033;SDS011;3045;43.226;27.858;2022-12-13T03:26:06;1.60;;;1.60;;
6033;SDS011;3045;43.226;27.858;2022-12-13T03:28:35;1.43;;;1.43;;
6033;SDS011;3045;43.226;27.858;2022-12-13T03:31:02;1.73;;;1.73;;
6033;SDS011;3045;43.226;27.858;2022-12-13T03:33:29;1.60;;;1.60;;
6033;SDS011;3045;43.226;27.858;2022-12-13T03:35:58;1.70;;;1.70;;
6033;SDS011;3045;43.226;27.858;2022-12-13T03:38:25;1.77;;;1.77;;
6033;SDS011;3045;43.226;27.858;2022-12-13T03:40:52;1.80;;;1.80;;
6033;SDS011;3045;43.226;27.858;2022-12-13T03:43:22;1.80;;;1.80;;
6033;SDS011;3045;43.226;27.858;2022-12-13T03:45:50;2.00;;;2.00;;
6033;SDS011;3045;43.226;27.858;2022-12-13T03:48:17;2.27;;;2.17;;
6033;SDS011;3045;43.226;27.858;2022-12-13T03:50:45;1.90;;;1.90;;
6033;SDS011;3045;43.226;27.858;2022-12-13T03:53:13;2.33;;;2.23;;
6033;SDS011;3045;43.226;27.858;2022-12-13T03:55:40;2.67;;;2.57;;
6033;SDS011;3045;43.226;27.858;2022-12-13T03:58:07;2.43;;;2.23;;
6033;SDS011;3045;43.226;27.858;2022-12-13T04:00:33;2.63;;;2.53;;
6033;SDS011;3045;43.226;27.858;2022-12-13T04:03:00;2.90;;;2.80;;
6033;SDS011;3045;43.226;27.858;2022-12-13T04:05:27;3.13;;;3.03;;
6033;SDS011;3045;43.226;27.858;2022-12-13T04:07:54;3.30;;;3.20;;
6033;SDS011;3045;43.226;27.858;2022-12-13T04:10:23;2.87;;;2.77;;
6033;SDS011;3045;43.226;27.858;2022-12-13T04:12:50;3.17;;;3.07;;
6033;SDS011;3045;43.226;27.858;2022-12-13T04:15:34;4.03;;;3.83;;
6033;SDS011;3045;43.226;27.858;2022-12-13T04:18:01;4.30;;;4.10;;
6033;SDS011;3045;43.226;27.858;2022-12-13T04:20:28;4.33;;;4.13;;
6033;SDS011;3045;43.226;27.858;2022-12-13T04:22:55;4.40;;;4.20;;
6033;SDS011;3045;43.226;27.858;2022-12-13T04:25:23;4.40;;;4.20;;
6033;SDS011;3045;43.226;27.858;2022-12-13T04:27:50;4.70;;;4.50;;
6033;SDS011;3045;43.226;27.858;2022-12-13T04:30:17;5.10;;;4.80;;
6033;SDS011;3045;43.226;27.858;2022-12-13T04:32:44;4.60;;;4.40;;
6033;SDS011;3045;43.226;27.858;2022-12-13T04:35:11;4.57;;;4.33;;
6033;SDS011;3045;43.226;27.858;2022-12-13T04:37:37;5.13;;;4.83;;
6033;SDS011;3045;43.226;27.858;2022-12-13T04:40:05;4.97;;;4.77;;
6033;SDS011;3045;43.226;27.858;2022-12-13T04:42:34;5.13;;;4.83;;
6033;SDS011;3045;43.226;27.858;2022-12-13T04:45:00;5.27;;;5.07;;
6033;SDS011;3045;43.226;27.858;2022-12-13T04:47:27;5.90;;;5.60;;
6033;SDS011;3045;43.226;27.858;2022-12-13T04:49:54;6.10;;;5.70;;
6033;SDS011;3045;43.226;27.858;2022-12-13T04:52:21;6.70;;;6.40;;
6033;SDS011;3045;43.226;27.858;2022-12-13T04:54:48;6.30;;;6.00;;
6033;SDS011;3045;43.226;27.858;2022-12-13T04:57:15;6.00;;;5.70;;
6033;SDS011;3045;43.226;27.858;2022-12-13T04:59:43;6.93;;;6.43;;
6033;SDS011;3045;43.226;27.858;2022-12-13T05:02:11;6.17;;;5.77;;
6033;SDS011;3045;43.226;27.858;2022-12-13T05:04:38;5.93;;;5.63;;
6033;SDS011;3045;43.226;27.858;2022-12-13T05:07:04;7.00;;;6.57;;
6033;SDS011;3045;43.226;27.858;2022-12-13T05:09:32;6.50;;;6.17;;
6033;SDS011;3045;43.226;27.858;2022-12-13T05:11:58;6.27;;;5.97;;
6033;SDS011;3045;43.226;27.858;2022-12-13T05:14:25;6.33;;;5.93;;
6033;SDS011;3045;43.226;27.858;2022-12-13T05:16:54;7.00;;;6.50;;
6033;SDS011;3045;43.226;27.858;2022-12-13T05:19:21;6.60;;;6.20;;
6033;SDS011;3045;43.226;27.858;2022-12-13T05:21:47;7.93;;;7.47;;
6033;SDS011;3045;43.226;27.858;2022-12-13T05:24:14;7.20;;;6.70;;
6033;SDS011;3045;43.226;27.858;2022-12-13T05:26:41;7.23;;;6.73;;
6033;SDS011;3045;43.226;27.858;2022-12-13T05:29:08;7.60;;;7.20;;
6033;SDS011;3045;43.226;27.858;2022-12-13T05:31:35;6.90;;;6.60;;
6033;SDS011;3045;43.226;27.858;2022-12-13T05:34:03;6.97;;;6.57;;
6033;SDS011;3045;43.226;27.858;2022-12-13T05:36:30;7.50;;;7.10;;
6033;SDS011;3045;43.226;27.858;2022-12-13T05:38:57;7.90;;;7.30;;
6033;SDS011;3045;43.226;27.858;2022-12-13T05:41:24;7.23;;;6.83;;
6033;SDS011;3045;43.226;27.858;2022-12-13T05:43:54;6.87;;;6.47;;
6033;SDS011;3045;43.226;27.858;2022-12-13T05:46:21;8.43;;;7.83;;
6033;SDS011;3045;43.226;27.858;2022-12-13T05:48:48;8.23;;;7.43;;
6033;SDS011;3045;43.226;27.858;2022-12-13T05:51:16;7.07;;;6.67;;
6033;SDS011;3045;43.226;27.858;2022-12-13T05:53:43;7.20;;;6.70;;
6033;SDS011;3045;43.226;27.858;2022-12-13T05:56:11;7.80;;;7.30;;
6033;SDS011;3045;43.226;27.858;2022-12-13T05:58:38;7.97;;;7.37;;
6033;SDS011;3045;43.226;27.858;2022-12-13T06:01:07;7.60;;;6.80;;
6033;SDS011;3045;43.226;27.858;2022-12-13T06:03:37;7.10;;;6.50;;
6033;SDS011;3045;43.226;27.858;2022-12-13T06:06:04;7.47;;;6.87;;
6033;SDS011;3045;43.226;27.858;2022-12-13T06:08:34;7.43;;;6.83;;
6033;SDS011;3045;43.226;27.858;2022-12-13T06:11:01;7.13;;;6.70;;
6033;SDS011;3045;43.226;27.858;2022-12-13T06:13:28;6.60;;;6.20;;
6033;SDS011;3045;43.226;27.858;2022-12-13T06:15:59;7.27;;;6.67;;
6033;SDS011;3045;43.226;27.858;2022-12-13T06:18:27;6.50;;;6.10;;
6033;SDS011;3045;43.226;27.858;2022-12-13T06:20:55;7.60;;;7.20;;
6033;SDS011;3045;43.226;27.858;2022-12-13T06:23:23;7.67;;;6.97;;
6033;SDS011;3045;43.226;27.858;2022-12-13T06:25:51;8.17;;;7.67;;
6033;SDS011;3045;43.226;27.858;2022-12-13T06:28:18;6.90;;;6.40;;
6033;SDS011;3045;43.226;27.858;2022-12-13T06:30:45;7.23;;;6.73;;
6033;SDS011;3045;43.226;27.858;2022-12-13T06:33:12;7.10;;;6.43;;
6033;SDS011;3045;43.226;27.858;2022-12-13T06:35:39;6.83;;;6.13;;
6033;SDS011;3045;43.226;27.858;2022-12-13T06:38:06;8.07;;;7.20;;
6033;SDS011;3045;43.226;27.858;2022-12-13T06:40:33;6.90;;;6.27;;
6033;SDS011;3045;43.226;27.858;2022-12-13T06:43:01;6.63;;;6.17;;
6033;SDS011;3045;43.226;27.858;2022-12-13T06:45:29;7.63;;;6.53;;
6033;SDS011;3045;43.226;27.858;2022-12-13T06:47:56;7.50;;;6.87;;
6033;SDS011;3045;43.226;27.858;2022-12-13T06:50:24;8.23;;;7.67;;
6033;SDS011;3045;43.226;27.858;2022-12-13T06:52:51;7.60;;;6.93;;
6033;SDS011;3045;43.226;27.858;2022-12-13T06:55:17;10.63;;;7.03;;
6033;SDS011;3045;43.226;27.858;2022-12-13T06:57:44;7.07;;;6.47;;
6033;SDS011;3045;43.226;27.858;2022-12-13T07:00:13;7.27;;;6.77;;
6033;SDS011;3045;43.226;27.858;2022-12-13T07:02:41;9.03;;;8.43;;
6033;SDS011;3045;43.226;27.858;2022-12-13T07:05:08;10.70;;;7.70;;
6033;SDS011;3045;43.226;27.858;2022-12-13T07:07:35;8.17;;;7.50;;
6033;SDS011;3045;43.226;27.858;2022-12-13T07:10:02;12.57;;;8.43;;
6033;SDS011;3045;43.226;27.858;2022-12-13T07:12:30;7.83;;;7.27;;
6033;SDS011;3045;43.226;27.858;2022-12-13T07:14:57;15.93;;;7.83;;
6033;SDS011;3045;43.226;27.858;2022-12-13T07:17:25;9.87;;;7.20;;
6033;SDS011;3045;43.226;27.858;2022-12-13T07:19:52;12.93;;;8.30;;
6033;SDS011;3045;43.226;27.858;2022-12-13T07:22:19;13.53;;;8.33;;
6033;SDS011;3045;43.226;27.858;2022-12-13T07:24:46;9.47;;;8.63;;
6033;SDS011;3045;43.226;27.858;2022-12-13T07:27:12;11.50;;;8.13;;
6033;SDS011;3045;43.226;27.858;2022-12-13T07:29:39;14.33;;;8.27;;
6033;SDS011;3045;43.226;27.858;2022-12-13T07:32:06;19.60;;;7.63;;
6033;SDS011;3045;43.226;27.858;2022-12-13T07:34:34;10.17;;;7.90;;
6033;SDS011;3045;43.226;27.858;2022-12-13T07:37:02;7.77;;;6.93;;
6033;SDS011;3045;43.226;27.858;2022-12-13T07:39:30;7.60;;;6.50;;
6033;SDS011;3045;43.226;27.858;2022-12-13T07:41:57;6.57;;;6.17;;
6033;SDS011;3045;43.226;27.858;2022-12-13T07:44:24;15.97;;;7.60;;
6033;SDS011;3045;43.226;27.858;2022-12-13T07:46:51;15.13;;;7.87;;
6033;SDS011;3045;43.226;27.858;2022-12-13T07:49:18;9.23;;;7.37;;
6033;SDS011;3045;43.226;27.858;2022-12-13T07:51:46;16.60;;;7.67;;
6033;SDS011;3045;43.226;27.858;2022-12-13T07:54:13;10.00;;;6.93;;
6033;SDS011;3045;43.226;27.858;2022-12-13T07:56:40;9.87;;;6.50;;
6033;SDS011;3045;43.226;27.858;2022-12-13T07:59:07;7.70;;;7.00;;
6033;SDS011;3045;43.226;27.858;2022-12-13T08:01:34;10.00;;;6.47;;
6033;SDS011;3045;43.226;27.858;2022-12-13T08:04:01;11.20;;;6.00;;
6033;SDS011;3045;43.226;27.858;2022-12-13T08:06:29;11.70;;;6.73;;
6033;SDS011;3045;43.226;27.858;2022-12-13T08:09:00;21.03;;;7.63;;
6033;SDS011;3045;43.226;27.858;2022-12-13T08:11:27;10.87;;;7.63;;
6033;SDS011;3045;43.226;27.858;2022-12-13T08:13:55;7.23;;;6.67;;
6033;SDS011;3045;43.226;27.858;2022-12-13T08:16:22;9.33;;;6.40;;
6033;SDS011;3045;43.226;27.858;2022-12-13T08:18:49;7.93;;;6.70;;
6033;SDS011;3045;43.226;27.858;2022-12-13T08:21:15;7.53;;;6.80;;
6033;SDS011;3045;43.226;27.858;2022-12-13T08:23:42;6.80;;;6.07;;
6033;SDS011;3045;43.226;27.858;2022-12-13T08:26:11;8.97;;;5.67;;
6033;SDS011;3045;43.226;27.858;2022-12-13T08:28:38;6.67;;;6.10;;
6033;SDS011;3045;43.226;27.858;2022-12-13T08:31:06;7.77;;;6.10;;
6033;SDS011;3045;43.226;27.858;2022-12-13T08:33:35;7.70;;;6.93;;
6033;SDS011;3045;43.226;27.858;2022-12-13T08:36:07;11.93;;;6.53;;
6033;SDS011;3045;43.226;27.858;2022-12-13T08:38:34;9.47;;;6.50;;
6033;SDS011;3045;43.226;27.858;2022-12-13T08:41:02;7.20;;;6.43;;
6033;SDS011;3045;43.226;27.858;2022-12-13T08:43:30;9.33;;;7.03;;
6033;SDS011;3045;43.226;27.858;2022-12-13T08:45:57;8.43;;;7.40;;
6033;SDS011;3045;43.226;27.858;2022-12-13T08:48:24;14.93;;;6.77;;
6033;SDS011;3045;43.226;27.858;2022-12-13T08:50:51;10.13;;;7.00;;
6033;SDS011;3045;43.226;27.858;2022-12-13T08:53:18;9.57;;;7.30;;
6033;SDS011;3045;43.226;27.858;2022-12-13T08:55:45;7.60;;;6.90;;
6033;SDS011;3045;43.226;27.858;2022-12-13T08:58:14;7.37;;;6.77;;
6033;SDS011;3045;43.226;27.858;2022-12-13T09:00:43;6.63;;;6.07;;
6033;SDS011;3045;43.226;27.858;2022-12-13T09:03:10;6.40;;;5.93;;
6033;SDS011;3045;43.226;27.858;2022-12-13T09:05:37;6.40;;;5.87;;
6033;SDS011;3045;43.226;27.858;2022-12-13T09:08:04;6.47;;;6.03;;
6033;SDS011;3045;43.226;27.858;2022-12-13T09:10:31;6.43;;;6.03;;
6033;SDS011;3045;43.226;27.858;2022-12-13T09:12:58;6.40;;;5.90;;
6033;SDS011;3045;43.226;27.858;2022-12-13T09:15:25;6.07;;;5.67;;
6033;SDS011;3045;43.226;27.858;2022-12-13T09:17:54;7.33;;;5.70;;
6033;SDS011;3045;43.226;27.858;2022-12-13T09:20:21;7.60;;;6.80;;
6033;SDS011;3045;43.226;27.858;2022-12-13T09:22:48;14.80;;;6.83;;
6033;SDS011;3045;43.226;27.858;2022-12-13T09:25:15;7.93;;;6.37;;
6033;SDS011;3045;43.226;27.858;2022-12-13T09:27:42;8.30;;;6.17;;
6033;SDS011;3045;43.226;27.858;2022-12-13T09:30:09;5.53;;;5.23;;
6033;SDS011;3045;43.226;27.858;2022-12-13T09:32:38;8.50;;;6.87;;
6033;SDS011;3045;43.226;27.858;2022-12-13T09:35:07;6.30;;;5.80;;
6033;SDS011;3045;43.226;27.858;2022-12-13T09:37:35;7.70;;;6.17;;
6033;SDS011;3045;43.226;27.858;2022-12-13T09:40:02;7.90;;;7.10;;
6033;SDS011;3045;43.226;27.858;2022-12-13T09:42:30;6.20;;;5.80;;
6033;SDS011;3045;43.226;27.858;2022-12-13T09:45:03;6.93;;;6.20;;
6033;SDS011;3045;43.226;27.858;2022-12-13T09:47:33;5.87;;;5.57;;
6033;SDS011;3045;43.226;27.858;2022-12-13T09:50:04;5.93;;;5.43;;
6033;SDS011;3045;43.226;27.858;2022-12-13T09:52:36;7.87;;;6.43;;
6033;SDS011;3045;43.226;27.858;2022-12-13T09:55:13;6.43;;;5.83;;
6033;SDS011;3045;43.226;27.858;2022-12-13T09:57:45;5.83;;;5.30;;
6033;SDS011;3045;43.226;27.858;2022-12-13T10:00:17;5.50;;;5.00;;
6033;SDS011;3045;43.226;27.858;2022-12-13T10:02:46;5.90;;;5.47;;
6033;SDS011;3045;43.226;27.858;2022-12-13T10:05:16;4.97;;;4.77;;
6033;SDS011;3045;43.226;27.858;2022-12-13T10:07:48;5.50;;;5.10;;
6033;SDS011;3045;43.226;27.858;2022-12-13T10:10:15;5.27;;;4.97;;
6033;SDS011;3045;43.226;27.858;2022-12-13T10:12:43;5.40;;;5.00;;
6033;SDS011;3045;43.226;27.858;2022-12-13T10:15:15;5.00;;;4.70;;
6033;SDS011;3045;43.226;27.858;2022-12-13T10:17:45;5.57;;;5.27;;
6033;SDS011;3045;43.226;27.858;2022-12-13T10:20:15;5.47;;;5.10;;
6033;SDS011;3045;43.226;27.858;2022-12-13T10:22:43;4.73;;;4.43;;
6033;SDS011;3045;43.226;27.858;2022-12-13T10:25:12;4.93;;;4.63;;
6033;SDS011;3045;43.226;27.858;2022-12-13T10:27:41;5.40;;;5.10;;
6033;SDS011;3045;43.226;27.858;2022-12-13T10:30:10;6.00;;;5.33;;
6033;SDS011;3045;43.226;27.858;2022-12-13T10:32:43;7.20;;;4.80;;
6033;SDS011;3045;43.226;27.858;2022-12-13T10:35:19;4.87;;;4.67;;
6033;SDS011;3045;43.226;27.858;2022-12-13T10:37:48;5.63;;;5.17;;
6033;SDS011;3045;43.226;27.858;2022-12-13T10:40:31;5.17;;;4.97;;
6033;SDS011;3045;43.226;27.858;2022-12-13T10:43:07;5.20;;;4.70;;
6033;SDS011;3045;43.226;27.858;2022-12-13T10:45:37;5.30;;;4.97;;
6033;SDS011;3045;43.226;27.858;2022-12-13T10:50:57;5.83;;;5.33;;
6033;SDS011;3045;43.226;27.858;2022-12-13T10:53:28;5.53;;;4.70;;
6033;SDS011;3045;43.226;27.858;2022-12-13T10:55:59;4.33;;;4.03;;
6033;SDS011;3045;43.226;27.858;2022-12-13T10:58:33;4.77;;;4.47;;
6033;SDS011;3045;43.226;27.858;2022-12-13T11:03:55;4.80;;;4.20;;
6033;SDS011;3045;43.226;27.858;2022-12-13T11:06:25;4.80;;;4.43;;
6033;SDS011;3045;43.226;27.858;2022-12-13T11:08:53;4.90;;;4.13;;
6033;SDS011;3045;43.226;27.858;2022-12-13T11:11:27;5.20;;;4.70;;
6033;SDS011;3045;43.226;27.858;2022-12-13T11:13:56;5.23;;;4.93;;
6033;SDS011;3045;43.226;27.858;2022-12-13T11:16:29;4.33;;;4.13;;
6033;SDS011;3045;43.226;27.858;2022-12-13T11:18:58;5.13;;;4.73;;
6033;SDS011;3045;43.226;27.858;2022-12-13T11:21:28;4.53;;;4.33;;
6033;SDS011;3045;43.226;27.858;2022-12-13T11:23:57;4.43;;;4.23;;
6033;SDS011;3045;43.226;27.858;2022-12-13T11:26:27;4.30;;;4.10;;
6033;SDS011;3045;43.226;27.858;2022-12-13T11:28:59;4.13;;;3.93;;
6033;SDS011;3045;43.226;27.858;2022-12-13T11:31:40;4.83;;;4.53;;
6033;SDS011;3045;43.226;27.858;2022-12-13T11:34:16;4.90;;;4.50;;
6033;SDS011;3045;43.226;27.858;2022-12-13T11:36:51;5.47;;;5.17;;
6033;SDS011;3045;43.226;27.858;2022-12-13T11:39:26;4.90;;;4.60;;
6033;SDS011;3045;43.226;27.858;2022-12-13T11:41:58;4.60;;;4.30;;
6033;SDS011;3045;43.226;27.858;2022-12-13T11:44:39;4.17;;;3.97;;
6033;SDS011;3045;43.226;27.858;2022-12-13T11:47:12;4.50;;;4.30;;
6033;SDS011;3045;43.226;27.858;2022-12-13T11:49:43;7.50;;;4.37;;
6033;SDS011;3045;43.226;27.858;2022-12-13T11:52:14;4.83;;;4.63;;
6033;SDS011;3045;43.226;27.858;2022-12-13T11:54:49;4.60;;;4.40;;
6033;SDS011;3045;43.226;27.858;2022-12-13T11:57:28;4.80;;;4.50;;
6033;SDS011;3045;43.226;27.858;2022-12-13T12:00:03;5.07;;;4.77;;
6033;SDS011;3045;43.226;27.858;2022-12-13T12:02:37;4.73;;;4.43;;
6033;SDS011;3045;43.226;27.858;2022-12-13T12:05:15;4.80;;;4.50;;
6033;SDS011;3045;43.226;27.858;2022-12-13T12:07:49;6.73;;;4.23;;
6033;SDS011;3045;43.226;27.858;2022-12-13T12:10:23;5.07;;;4.77;;
6033;SDS011;3045;43.226;27.858;2022-12-13T12:12:56;4.70;;;4.50;;
6033;SDS011;3045;43.226;27.858;2022-12-13T12:15:37;5.30;;;5.00;;
6033;SDS011;3045;43.226;27.858;2022-12-13T12:18:11;5.73;;;5.43;;
6033;SDS011;3045;43.226;27.858;2022-12-13T12:20:43;4.80;;;4.60;;
6033;SDS011;3045;43.226;27.858;2022-12-13T12:23:21;5.17;;;4.80;;
6033;SDS011;3045;43.226;27.858;2022-12-13T12:26:03;7.07;;;5.00;;
6033;SDS011;3045;43.226;27.858;2022-12-13T12:28:38;5.47;;;5.17;;
6033;SDS011;3045;43.226;27.858;2022-12-13T12:31:21;5.10;;;4.80;;
6033;SDS011;3045;43.226;27.858;2022-12-13T12:33:57;5.87;;;5.47;;
6033;SDS011;3045;43.226;27.858;2022-12-13T12:36:33;5.87;;;5.37;;
6033;SDS011;3045;43.226;27.858;2022-12-13T12:39:19;4.67;;;4.37;;
6033;SDS011;3045;43.226;27.858;2022-12-13T12:42:01;5.00;;;4.80;;
6033;SDS011;3045;43.226;27.858;2022-12-13T12:44:45;5.27;;;4.97;;
6033;SDS011;3045;43.226;27.858;2022-12-13T12:47:27;4.83;;;4.63;;
6033;SDS011;3045;43.226;27.858;2022-12-13T12:50:02;5.00;;;4.70;;
6033;SDS011;3045;43.226;27.858;2022-12-13T12:52:42;5.00;;;4.50;;
6033;SDS011;3045;43.226;27.858;2022-12-13T12:55:22;5.30;;;4.90;;
6033;SDS011;3045;43.226;27.858;2022-12-13T12:58:02;5.10;;;4.80;;
6033;SDS011;3045;43.226;27.858;2022-12-13T13:00:43;5.50;;;5.20;;
6033;SDS011;3045;43.226;27.858;2022-12-13T13:03:20;5.73;;;5.23;;
6033;SDS011;3045;43.226;27.858;2022-12-13T13:05:50;6.60;;;6.00;;
6033;SDS011;3045;43.226;27.858;2022-12-13T13:08:22;6.43;;;5.80;;
6033;SDS011;3045;43.226;27.858;2022-12-13T13:10:54;7.20;;;6.77;;
6033;SDS011;3045;43.226;27.858;2022-12-13T13:13:31;7.80;;;5.40;;
6033;SDS011;3045;43.226;27.858;2022-12-13T13:16:02;6.73;;;6.03;;
6033;SDS011;3045;43.226;27.858;2022-12-13T13:18:42;5.87;;;5.37;;
6033;SDS011;3045;43.226;27.858;2022-12-13T13:24:11;6.97;;;6.57;;
6033;SDS011;3045;43.226;27.858;2022-12-13T13:26:44;7.00;;;6.50;;
6033;SDS011;3045;43.226;27.858;2022-12-13T13:32:04;8.67;;;6.97;;
6033;SDS011;3045;43.226;27.858;2022-12-13T13:34:50;17.10;;;7.90;;
6033;SDS011;3045;43.226;27.858;2022-12-13T13:37:28;8.97;;;7.87;;
6033;SDS011;3045;43.226;27.858;2022-12-13T13:40:27;7.83;;;7.23;;
6033;SDS011;3045;43.226;27.858;2022-12-13T13:45:55;8.00;;;7.40;;
6033;SDS011;3045;43.226;27.858;2022-12-13T13:48:30;8.13;;;6.73;;
6033;SDS011;3045;43.226;27.858;2022-12-13T13:51:13;6.60;;;6.07;;
6033;SDS011;3045;43.226;27.858;2022-12-13T13:56:44;12.30;;;6.07;;
6033;SDS011;3045;43.226;27.858;2022-12-13T13:59:58;6.27;;;5.73;;
6033;SDS011;3045;43.226;27.858;2022-12-13T14:02:49;6.47;;;6.07;;
6033;SDS011;3045;43.226;27.858;2022-12-13T14:09:05;7.47;;;6.97;;
6033;SDS011;3045;43.226;27.858;2022-12-13T14:15:05;10.10;;;7.10;;
6033;SDS011;3045;43.226;27.858;2022-12-13T14:18:01;7.60;;;6.93;;
6033;SDS011;3045;43.226;27.858;2022-12-13T14:20:58;10.13;;;6.87;;
6033;SDS011;3045;43.226;27.858;2022-12-13T14:23:35;6.67;;;6.13;;
6033;SDS011;3045;43.226;27.858;2022-12-13T14:26:17;7.13;;;6.63;;
6033;SDS011;3045;43.226;27.858;2022-12-13T14:28:51;20.03;;;8.10;;
6033;SDS011;3045;43.226;27.858;2022-12-13T14:31:22;17.00;;;8.63;;
6033;SDS011;3045;43.226;27.858;2022-12-13T14:33:50;14.10;;;7.37;;
6033;SDS011;3045;43.226;27.858;2022-12-13T14:36:25;10.97;;;8.10;;
6033;SDS011;3045;43.226;27.858;2022-12-13T14:38:57;17.60;;;7.60;;
6033;SDS011;3045;43.226;27.858;2022-12-13T14:41:29;7.97;;;7.47;;
6033;SDS011;3045;43.226;27.858;2022-12-13T14:46:48;7.47;;;7.07;;
6033;SDS011;3045;43.226;27.858;2022-12-13T14:49:16;8.87;;;7.77;;
6033;SDS011;3045;43.226;27.858;2022-12-13T14:51:44;8.73;;;7.93;;
6033;SDS011;3045;43.226;27.858;2022-12-13T14:54:16;8.87;;;7.93;;
6033;SDS011;3045;43.226;27.858;2022-12-13T14:56:54;10.80;;;8.30;;
6033;SDS011;3045;43.226;27.858;2022-12-13T14:59:22;19.43;;;10.43;;
6033;SDS011;3045;43.226;27.858;2022-12-13T15:01:53;23.70;;;10.37;;
6033;SDS011;3045;43.226;27.858;2022-12-13T15:04:24;22.40;;;10.23;;
6033;SDS011;3045;43.226;27.858;2022-12-13T15:06:54;32.00;;;10.93;;
6033;SDS011;3045;43.226;27.858;2022-12-13T15:09:25;20.97;;;11.63;;
6033;SDS011;3045;43.226;27.858;2022-12-13T15:11:52;23.00;;;11.80;;
6033;SDS011;3045;43.226;27.858;2022-12-13T15:14:21;18.30;;;11.77;;
6033;SDS011;3045;43.226;27.858;2022-12-13T15:16:51;27.07;;;12.00;;
6033;SDS011;3045;43.226;27.858;2022-12-13T15:19:21;38.13;;;12.43;;
6033;SDS011;3045;43.226;27.858;2022-12-13T15:21:52;40.17;;;13.47;;
6033;SDS011;3045;43.226;27.858;2022-12-13T15:24:21;41.87;;;12.27;;
6033;SDS011;3045;43.226;27.858;2022-12-13T15:26:52;26.03;;;13.00;;
6033;SDS011;3045;43.226;27.858;2022-12-13T15:29:22;75.20;;;33.40;;
6033;SDS011;3045;43.226;27.858;2022-12-13T15:31:51;30.50;;;13.77;;
6033;SDS011;3045;43.226;27.858;2022-12-13T15:34:22;24.30;;;14.53;;
6033;SDS011;3045;43.226;27.858;2022-12-13T15:36:57;34.43;;;13.83;;
6033;SDS011;3045;43.226;27.858;2022-12-13T15:39:26;57.70;;;15.23;;
6033;SDS011;3045;43.226;27.858;2022-12-13T15:41:55;57.10;;;16.40;;
6033;SDS011;3045;43.226;27.858;2022-12-13T15:44:24;63.23;;;17.53;;
6033;SDS011;3045;43.226;27.858;2022-12-13T15:46:55;46.40;;;16.70;;
6033;SDS011;3045;43.226;27.858;2022-12-13T15:49:29;24.23;;;12.47;;
6033;SDS011;3045;43.226;27.858;2022-12-13T15:51:58;29.47;;;13.63;;